sensor_id;sensor_type;location;lat;lon;timestamp;temperature;humidity
82126;DHT22;71668;51.400;6.758;2023-11-19T00:00:18;11.30;99.90
82126;DHT22;71668;51.400;6.758;2023-11-19T00:02:45;11.40;99.90
82126;DHT22;71668;51.400;6.758;2023-11-19T00:05:14;11.40;99.90
82126;DHT22;71668;51.400;6.758;2023-11-19T00:07:41;11.50;99.90
82126;DHT22;71668;51.400;6.758;2023-11-19T00:10:14;11.60;99.90
82126;DHT22;71668;51.400;6.758;2023-11-19T00:12:43;11.60;99.90
82126;DHT22;71668;51.400;6.758;2023-11-19T00:15:14;11.60;99.90
82126;DHT22;71668;51.400;6.758;2023-11-19T00:17:42;11.70;99.90
82126;DHT22;71668;51.400;6.758;2023-11-19T00:20:13;11.80;99.90
82126;DHT22;71668;51.400;6.758;2023-11-19T00:22:41;11.80;99.90
82126;DHT22;71668;51.400;6.758;2023-11-19T00:25:11;11.80;99.90
82126;DHT22;71668;51.400;6.758;2023-11-19T00:27:38;11.90;99.90
82126;DHT22;71668;51.400;6.758;2023-11-19T00:30:06;11.90;99.90
82126;DHT22;71668;51.400;6.758;2023-11-19T00:32:33;12.00;99.90
82126;DHT22;71668;51.400;6.758;2023-11-19T00:35:00;12.10;99.90
82126;DHT22;71668;51.400;6.758;2023-11-19T00:37:27;12.20;99.90
82126;DHT22;71668;51.400;6.758;2023-11-19T00:39:54;12.30;99.90
82126;DHT22;71668;51.400;6.758;2023-11-19T00:42:23;12.40;99.90
82126;DHT22;71668;51.400;6.758;2023-11-19T00:44:51;12.40;99.90
82126;DHT22;71668;51.400;6.758;2023-11-19T00:47:19;12.50;99.90
82126;DHT22;71668;51.400;6.758;2023-11-19T00:49:48;12.60;99.90
82126;DHT22;71668;51.400;6.758;2023-11-19T00:52:18;12.60;99.90
82126;DHT22;71668;51.400;6.758;2023-11-19T00:54:45;12.70;99.90
82126;DHT22;71668;51.400;6.758;2023-11-19T00:57:12;12.70;99.90
82126;DHT22;71668;51.400;6.758;2023-11-19T00:59:42;12.70;99.90
82126;DHT22;71668;51.400;6.758;2023-11-19T01:02:09;12.80;99.90
82126;DHT22;71668;51.400;6.758;2023-11-19T01:04:36;12.70;99.90
82126;DHT22;71668;51.400;6.758;2023-11-19T01:07:04;12.80;99.90
82126;DHT22;71668;51.400;6.758;2023-11-19T01:09:32;12.80;99.90
82126;DHT22;71668;51.400;6.758;2023-11-19T01:12:02;12.80;99.90
82126;DHT22;71668;51.400;6.758;2023-11-19T01:14:29;12.80;99.90
82126;DHT22;71668;51.400;6.758;2023-11-19T01:16:56;12.80;99.90
82126;DHT22;71668;51.400;6.758;2023-11-19T01:19:24;12.90;99.90
82126;DHT22;71668;51.400;6.758;2023-11-19T01:21:52;12.90;99.90
82126;DHT22;71668;51.400;6.758;2023-11-19T01:24:19;12.90;99.90
82126;DHT22;71668;51.400;6.758;2023-11-19T01:26:46;12.90;99.90
82126;DHT22;71668;51.400;6.758;2023-11-19T01:29:14;12.90;99.90
82126;DHT22;71668;51.400;6.758;2023-11-19T01:31:45;12.90;99.90
82126;DHT22;71668;51.400;6.758;2023-11-19T01:34:12;13.00;99.90
82126;DHT22;71668;51.400;6.758;2023-11-19T01:36:39;13.00;99.90
82126;DHT22;71668;51.400;6.758;2023-11-19T01:39:06;13.00;99.90
82126;DHT22;71668;51.400;6.758;2023-11-19T01:41:37;13.00;99.90
82126;DHT22;71668;51.400;6.758;2023-11-19T01:44:08;13.10;99.90
82126;DHT22;71668;51.400;6.758;2023-11-19T01:46:35;13.10;99.90
82126;DHT22;71668;51.400;6.758;2023-11-19T01:49:04;13.10;99.90
82126;DHT22;71668;51.400;6.758;2023-11-19T01:51:32;13.10;99.90
82126;DHT22;71668;51.400;6.758;2023-11-19T01:53:59;13.20;99.90
82126;DHT22;71668;51.400;6.758;2023-11-19T01:56:27;13.10;99.90
82126;DHT22;71668;51.400;6.758;2023-11-19T01:58:55;13.20;99.90
82126;DHT22;71668;51.400;6.758;2023-11-19T02:01:23;13.20;99.90
82126;DHT22;71668;51.400;6.758;2023-11-19T02:03:51;13.20;99.90
82126;DHT22;71668;51.400;6.758;2023-11-19T02:06:19;13.20;99.90
82126;DHT22;71668;51.400;6.758;2023-11-19T02:08:46;13.20;99.90
82126;DHT22;71668;51.400;6.758;2023-11-19T02:11:13;13.20;99.90
82126;DHT22;71668;51.400;6.758;2023-11-19T02:13:40;13.20;99.90
82126;DHT22;71668;51.400;6.758;2023-11-19T02:16:08;13.20;99.90
82126;DHT22;71668;51.400;6.758;2023-11-19T02:18:37;13.20;99.90
82126;DHT22;71668;51.400;6.758;2023-11-19T02:21:05;13.20;99.90
82126;DHT22;71668;51.400;6.758;2023-11-19T02:23:32;13.30;99.90
82126;DHT22;71668;51.400;6.758;2023-11-19T02:26:13;13.50;99.90
82126;DHT22;71668;51.400;6.758;2023-11-19T02:28:42;13.60;99.90
82126;DHT22;71668;51.400;6.758;2023-11-19T02:31:10;13.80;99.90
82126;DHT22;71668;51.400;6.758;2023-11-19T02:33:38;14.00;99.90
82126;DHT22;71668;51.400;6.758;2023-11-19T02:36:06;14.00;99.90
82126;DHT22;71668;51.400;6.758;2023-11-19T02:38:34;14.10;99.90
82126;DHT22;71668;51.400;6.758;2023-11-19T02:41:06;14.10;99.90
82126;DHT22;71668;51.400;6.758;2023-11-19T02:43:33;14.20;99.90
82126;DHT22;71668;51.400;6.758;2023-11-19T02:46:05;14.30;99.90
82126;DHT22;71668;51.400;6.758;2023-11-19T02:48:38;14.30;99.90
82126;DHT22;71668;51.400;6.758;2023-11-19T02:51:06;14.30;99.90
82126;DHT22;71668;51.400;6.758;2023-11-19T02:53:36;14.20;99.90
82126;DHT22;71668;51.400;6.758;2023-11-19T02:56:07;14.00;99.90
82126;DHT22;71668;51.400;6.758;2023-11-19T02:58:54;13.90;99.90
82126;DHT22;71668;51.400;6.758;2023-11-19T03:01:23;13.80;99.90
82126;DHT22;71668;51.400;6.758;2023-11-19T03:03:57;13.80;99.90
82126;DHT22;71668;51.400;6.758;2023-11-19T03:06:25;13.80;99.90
82126;DHT22;71668;51.400;6.758;2023-11-19T03:08:52;13.70;99.90
82126;DHT22;71668;51.400;6.758;2023-11-19T03:11:19;13.70;99.90
82126;DHT22;71668;51.400;6.758;2023-11-19T03:13:47;13.60;99.90
82126;DHT22;71668;51.400;6.758;2023-11-19T03:16:14;13.60;99.90
82126;DHT22;71668;51.400;6.758;2023-11-19T03:18:41;13.60;99.90
82126;DHT22;71668;51.400;6.758;2023-11-19T03:21:08;13.60;99.90
82126;DHT22;71668;51.400;6.758;2023-11-19T03:23:35;13.50;99.90
82126;DHT22;71668;51.400;6.758;2023-11-19T03:26:03;13.40;99.90
82126;DHT22;71668;51.400;6.758;2023-11-19T03:28:32;13.30;99.90
82126;DHT22;71668;51.400;6.758;2023-11-19T03:30:59;13.20;99.90
82126;DHT22;71668;51.400;6.758;2023-11-19T03:33:26;13.20;99.90
82126;DHT22;71668;51.400;6.758;2023-11-19T03:35:56;13.20;99.90
82126;DHT22;71668;51.400;6.758;2023-11-19T03:38:24;13.10;99.90
82126;DHT22;71668;51.400;6.758;2023-11-19T03:40:51;13.10;99.90
82126;DHT22;71668;51.400;6.758;2023-11-19T03:43:18;13.00;99.90
82126;DHT22;71668;51.400;6.758;2023-11-19T03:45:48;12.90;99.90
82126;DHT22;71668;51.400;6.758;2023-11-19T03:48:15;12.90;99.90
82126;DHT22;71668;51.400;6.758;2023-11-19T03:50:43;12.80;99.90
82126;DHT22;71668;51.400;6.758;2023-11-19T03:53:12;12.70;99.90
82126;DHT22;71668;51.400;6.758;2023-11-19T03:55:40;12.70;99.90
82126;DHT22;71668;51.400;6.758;2023-11-19T03:58:07;12.70;99.90
82126;DHT22;71668;51.400;6.758;2023-11-19T04:00:34;12.70;99.90
82126;DHT22;71668;51.400;6.758;2023-11-19T04:03:01;12.70;99.90
82126;DHT22;71668;51.400;6.758;2023-11-19T04:05:29;12.70;99.90
82126;DHT22;71668;51.400;6.758;2023-11-19T04:07:56;12.70;99.90
82126;DHT22;71668;51.400;6.758;2023-11-19T04:10:23;12.70;99.90
82126;DHT22;71668;51.400;6.758;2023-11-19T04:12:50;12.70;99.90
82126;DHT22;71668;51.400;6.758;2023-11-19T04:15:16;12.70;99.90
82126;DHT22;71668;51.400;6.758;2023-11-19T04:17:44;12.70;99.90
82126;DHT22;71668;51.400;6.758;2023-11-19T04:20:11;12.70;99.90
82126;DHT22;71668;51.400;6.758;2023-11-19T04:22:41;12.70;99.90
82126;DHT22;71668;51.400;6.758;2023-11-19T04:25:08;12.70;99.90
82126;DHT22;71668;51.400;6.758;2023-11-19T04:27:35;12.70;99.90
82126;DHT22;71668;51.400;6.758;2023-11-19T04:30:03;12.80;99.90
82126;DHT22;71668;51.400;6.758;2023-11-19T04:32:30;12.80;99.90
82126;DHT22;71668;51.400;6.758;2023-11-19T04:34:57;12.70;99.90
82126;DHT22;71668;51.400;6.758;2023-11-19T04:37:24;12.70;99.90
82126;DHT22;71668;51.400;6.758;2023-11-19T04:39:51;12.60;99.90
82126;DHT22;71668;51.400;6.758;2023-11-19T04:42:18;12.60;99.90
82126;DHT22;71668;51.400;6.758;2023-11-19T04:44:45;12.60;99.90
82126;DHT22;71668;51.400;6.758;2023-11-19T04:47:12;12.60;99.90
82126;DHT22;71668;51.400;6.758;2023-11-19T04:49:42;12.60;99.90
82126;DHT22;71668;51.400;6.758;2023-11-19T04:52:12;12.60;99.90
82126;DHT22;71668;51.400;6.758;2023-11-19T04:54:43;12.60;99.90
82126;DHT22;71668;51.400;6.758;2023-11-19T04:57:10;12.70;99.90
82126;DHT22;71668;51.400;6.758;2023-11-19T04:59:40;12.70;99.90
82126;DHT22;71668;51.400;6.758;2023-11-19T05:02:08;12.70;99.90
82126;DHT22;71668;51.400;6.758;2023-11-19T05:04:35;12.80;99.90
82126;DHT22;71668;51.400;6.758;2023-11-19T05:07:04;12.90;99.90
82126;DHT22;71668;51.400;6.758;2023-11-19T05:09:31;12.90;99.90
82126;DHT22;71668;51.400;6.758;2023-11-19T05:11:58;12.90;99.90
82126;DHT22;71668;51.400;6.758;2023-11-19T05:14:25;12.80;99.90
82126;DHT22;71668;51.400;6.758;2023-11-19T05:16:51;12.80;99.90
82126;DHT22;71668;51.400;6.758;2023-11-19T05:19:18;12.80;99.90
82126;DHT22;71668;51.400;6.758;2023-11-19T05:21:45;12.90;99.90
82126;DHT22;71668;51.400;6.758;2023-11-19T05:24:12;13.00;99.90
82126;DHT22;71668;51.400;6.758;2023-11-19T05:26:39;13.00;99.90
82126;DHT22;71668;51.400;6.758;2023-11-19T05:29:20;13.00;99.90
82126;DHT22;71668;51.400;6.758;2023-11-19T05:31:47;13.00;99.90
82126;DHT22;71668;51.400;6.758;2023-11-19T05:34:15;13.00;99.90
82126;DHT22;71668;51.400;6.758;2023-11-19T05:36:42;13.00;99.90
82126;DHT22;71668;51.400;6.758;2023-11-19T05:39:10;13.00;99.90
82126;DHT22;71668;51.400;6.758;2023-11-19T05:41:38;13.10;99.90
82126;DHT22;71668;51.400;6.758;2023-11-19T05:44:05;13.10;99.90
82126;DHT22;71668;51.400;6.758;2023-11-19T05:46:33;13.00;99.90
82126;DHT22;71668;51.400;6.758;2023-11-19T05:49:07;13.00;99.90
82126;DHT22;71668;51.400;6.758;2023-11-19T05:51:38;13.00;99.90
82126;DHT22;71668;51.400;6.758;2023-11-19T05:54:09;13.00;99.90
82126;DHT22;71668;51.400;6.758;2023-11-19T05:56:36;13.00;99.90
82126;DHT22;71668;51.400;6.758;2023-11-19T05:59:03;12.90;99.90
82126;DHT22;71668;51.400;6.758;2023-11-19T06:01:37;12.90;99.90
82126;DHT22;71668;51.400;6.758;2023-11-19T06:04:04;12.80;99.90
82126;DHT22;71668;51.400;6.758;2023-11-19T06:06:31;12.90;99.90
82126;DHT22;71668;51.400;6.758;2023-11-19T06:08:58;12.90;99.90
82126;DHT22;71668;51.400;6.758;2023-11-19T06:11:38;12.90;99.90
82126;DHT22;71668;51.400;6.758;2023-11-19T06:14:05;12.90;99.90
82126;DHT22;71668;51.400;6.758;2023-11-19T06:16:32;12.90;99.90
82126;DHT22;71668;51.400;6.758;2023-11-19T06:18:59;12.90;99.90
82126;DHT22;71668;51.400;6.758;2023-11-19T06:21:26;12.90;99.90
82126;DHT22;71668;51.400;6.758;2023-11-19T06:23:53;12.80;99.90
82126;DHT22;71668;51.400;6.758;2023-11-19T06:26:21;12.70;99.90
82126;DHT22;71668;51.400;6.758;2023-11-19T06:28:48;12.70;99.90
82126;DHT22;71668;51.400;6.758;2023-11-19T06:31:15;12.60;99.90
82126;DHT22;71668;51.400;6.758;2023-11-19T06:33:43;12.60;99.90
82126;DHT22;71668;51.400;6.758;2023-11-19T06:36:10;12.60;99.90
82126;DHT22;71668;51.400;6.758;2023-11-19T06:38:37;12.50;99.90
82126;DHT22;71668;51.400;6.758;2023-11-19T06:41:07;12.50;99.90
82126;DHT22;71668;51.400;6.758;2023-11-19T06:43:36;12.50;99.90
82126;DHT22;71668;51.400;6.758;2023-11-19T06:46:22;12.40;99.90
82126;DHT22;71668;51.400;6.758;2023-11-19T06:48:56;12.50;99.90
82126;DHT22;71668;51.400;6.758;2023-11-19T06:51:23;12.40;99.90
82126;DHT22;71668;51.400;6.758;2023-11-19T06:53:53;12.40;99.90
82126;DHT22;71668;51.400;6.758;2023-11-19T06:56:21;12.40;99.90
82126;DHT22;71668;51.400;6.758;2023-11-19T06:58:52;12.30;99.90
82126;DHT22;71668;51.400;6.758;2023-11-19T07:01:19;12.30;99.90
82126;DHT22;71668;51.400;6.758;2023-11-19T07:03:47;12.30;99.90
82126;DHT22;71668;51.400;6.758;2023-11-19T07:06:15;12.30;99.90
82126;DHT22;71668;51.400;6.758;2023-11-19T07:08:42;12.30;99.90
82126;DHT22;71668;51.400;6.758;2023-11-19T07:11:13;12.30;99.90
82126;DHT22;71668;51.400;6.758;2023-11-19T07:13:41;12.30;99.90
82126;DHT22;71668;51.400;6.758;2023-11-19T07:16:08;12.30;99.90
82126;DHT22;71668;51.400;6.758;2023-11-19T07:18:37;12.30;99.90
82126;DHT22;71668;51.400;6.758;2023-11-19T07:21:04;12.30;99.90
82126;DHT22;71668;51.400;6.758;2023-11-19T07:23:31;12.40;99.90
82126;DHT22;71668;51.400;6.758;2023-11-19T07:25:59;12.40;99.90
82126;DHT22;71668;51.400;6.758;2023-11-19T07:28:26;12.40;99.90
82126;DHT22;71668;51.400;6.758;2023-11-19T07:30:55;12.40;99.90
82126;DHT22;71668;51.400;6.758;2023-11-19T07:33:26;12.40;99.90
82126;DHT22;71668;51.400;6.758;2023-11-19T07:35:55;12.40;99.90
82126;DHT22;71668;51.400;6.758;2023-11-19T07:38:22;12.50;99.90
82126;DHT22;71668;51.400;6.758;2023-11-19T07:40:50;12.50;99.90
82126;DHT22;71668;51.400;6.758;2023-11-19T07:43:19;12.50;99.90
82126;DHT22;71668;51.400;6.758;2023-11-19T07:45:46;12.60;99.90
82126;DHT22;71668;51.400;6.758;2023-11-19T07:48:17;12.60;99.90
82126;DHT22;71668;51.400;6.758;2023-11-19T07:50:49;12.70;99.90
82126;DHT22;71668;51.400;6.758;2023-11-19T07:53:19;12.70;99.90
82126;DHT22;71668;51.400;6.758;2023-11-19T07:55:46;12.80;99.90
82126;DHT22;71668;51.400;6.758;2023-11-19T07:58:13;12.80;99.90
82126;DHT22;71668;51.400;6.758;2023-11-19T08:00:40;12.80;99.90
82126;DHT22;71668;51.400;6.758;2023-11-19T08:03:08;12.90;99.90
82126;DHT22;71668;51.400;6.758;2023-11-19T08:05:36;13.00;99.90
82126;DHT22;71668;51.400;6.758;2023-11-19T08:08:03;13.00;99.90
82126;DHT22;71668;51.400;6.758;2023-11-19T08:10:29;13.10;99.90
82126;DHT22;71668;51.400;6.758;2023-11-19T08:12:57;13.20;99.90
82126;DHT22;71668;51.400;6.758;2023-11-19T08:15:25;13.30;99.90
82126;DHT22;71668;51.400;6.758;2023-11-19T08:17:57;13.40;99.90
82126;DHT22;71668;51.400;6.758;2023-11-19T08:20:28;13.50;99.90
82126;DHT22;71668;51.400;6.758;2023-11-19T08:22:55;13.60;99.90
82126;DHT22;71668;51.400;6.758;2023-11-19T08:25:22;13.70;99.90
82126;DHT22;71668;51.400;6.758;2023-11-19T08:27:49;13.60;99.90
82126;DHT22;71668;51.400;6.758;2023-11-19T08:30:16;13.60;99.90
82126;DHT22;71668;51.400;6.758;2023-11-19T08:32:43;13.70;99.90
82126;DHT22;71668;51.400;6.758;2023-11-19T08:35:11;13.80;99.90
82126;DHT22;71668;51.400;6.758;2023-11-19T08:37:38;13.80;99.90
82126;DHT22;71668;51.400;6.758;2023-11-19T08:40:06;13.90;99.90
82126;DHT22;71668;51.400;6.758;2023-11-19T08:42:34;14.00;99.90
82126;DHT22;71668;51.400;6.758;2023-11-19T08:45:02;14.10;99.90
82126;DHT22;71668;51.400;6.758;2023-11-19T08:47:32;14.10;99.80
82126;DHT22;71668;51.400;6.758;2023-11-19T08:50:00;14.30;99.80
82126;DHT22;71668;51.400;6.758;2023-11-19T08:52:31;14.40;99.10
82126;DHT22;71668;51.400;6.758;2023-11-19T08:55:01;14.50;98.70
82126;DHT22;71668;51.400;6.758;2023-11-19T08:57:28;14.70;98.40
82126;DHT22;71668;51.400;6.758;2023-11-19T08:59:55;14.80;97.90
82126;DHT22;71668;51.400;6.758;2023-11-19T09:02:22;14.90;97.30
82126;DHT22;71668;51.400;6.758;2023-11-19T09:04:49;15.10;97.20
82126;DHT22;71668;51.400;6.758;2023-11-19T09:07:20;15.40;96.50
82126;DHT22;71668;51.400;6.758;2023-11-19T09:09:48;15.40;95.90
82126;DHT22;71668;51.400;6.758;2023-11-19T09:12:15;15.60;95.50
82126;DHT22;71668;51.400;6.758;2023-11-19T09:14:42;15.70;94.30
82126;DHT22;71668;51.400;6.758;2023-11-19T09:17:09;16.10;94.10
82126;DHT22;71668;51.400;6.758;2023-11-19T09:19:37;16.20;93.20
82126;DHT22;71668;51.400;6.758;2023-11-19T09:22:06;16.20;92.90
82126;DHT22;71668;51.400;6.758;2023-11-19T09:24:36;16.20;92.60
82126;DHT22;71668;51.400;6.758;2023-11-19T09:27:04;16.10;92.70
82126;DHT22;71668;51.400;6.758;2023-11-19T09:29:32;16.00;92.40
82126;DHT22;71668;51.400;6.758;2023-11-19T09:32:00;16.20;91.90
82126;DHT22;71668;51.400;6.758;2023-11-19T09:34:28;16.30;91.70
82126;DHT22;71668;51.400;6.758;2023-11-19T09:36:55;17.00;90.30
82126;DHT22;71668;51.400;6.758;2023-11-19T09:39:22;16.90;87.90
82126;DHT22;71668;51.400;6.758;2023-11-19T09:41:49;18.40;82.00
82126;DHT22;71668;51.400;6.758;2023-11-19T09:44:16;19.70;71.60
82126;DHT22;71668;51.400;6.758;2023-11-19T09:46:45;19.30;70.90
82126;DHT22;71668;51.400;6.758;2023-11-19T09:49:13;18.60;71.20
82126;DHT22;71668;51.400;6.758;2023-11-19T09:51:41;17.70;76.10
82126;DHT22;71668;51.400;6.758;2023-11-19T09:54:08;17.20;79.70
82126;DHT22;71668;51.400;6.758;2023-11-19T09:56:37;16.90;81.90
82126;DHT22;71668;51.400;6.758;2023-11-19T09:59:05;16.40;84.30
82126;DHT22;71668;51.400;6.758;2023-11-19T10:01:33;16.00;87.30
82126;DHT22;71668;51.400;6.758;2023-11-19T10:04:03;15.70;90.20
82126;DHT22;71668;51.400;6.758;2023-11-19T10:06:30;15.50;91.20
82126;DHT22;71668;51.400;6.758;2023-11-19T10:08:57;15.30;91.90
82126;DHT22;71668;51.400;6.758;2023-11-19T10:11:26;15.20;92.20
82126;DHT22;71668;51.400;6.758;2023-11-19T10:13:53;15.10;92.70
82126;DHT22;71668;51.400;6.758;2023-11-19T10:16:20;15.00;93.30
82126;DHT22;71668;51.400;6.758;2023-11-19T10:18:50;15.10;93.50
82126;DHT22;71668;51.400;6.758;2023-11-19T10:21:20;15.20;92.40
82126;DHT22;71668;51.400;6.758;2023-11-19T10:23:51;15.30;92.20
82126;DHT22;71668;51.400;6.758;2023-11-19T10:26:19;15.40;92.10
82126;DHT22;71668;51.400;6.758;2023-11-19T10:28:48;15.40;92.20
82126;DHT22;71668;51.400;6.758;2023-11-19T10:31:16;15.80;91.30
82126;DHT22;71668;51.400;6.758;2023-11-19T10:33:44;17.10;85.70
82126;DHT22;71668;51.400;6.758;2023-11-19T10:36:13;17.30;83.40
82126;DHT22;71668;51.400;6.758;2023-11-19T10:38:40;17.30;82.70
82126;DHT22;71668;51.400;6.758;2023-11-19T10:41:31;17.20;81.50
82126;DHT22;71668;51.400;6.758;2023-11-19T10:44:02;17.00;81.70
82126;DHT22;71668;51.400;6.758;2023-11-19T10:46:42;16.80;82.60
82126;DHT22;71668;51.400;6.758;2023-11-19T10:49:10;17.10;82.80
82126;DHT22;71668;51.400;6.758;2023-11-19T10:51:44;17.70;79.10
82126;DHT22;71668;51.400;6.758;2023-11-19T10:54:15;18.30;78.90
82126;DHT22;71668;51.400;6.758;2023-11-19T10:56:44;19.60;83.20
82126;DHT22;71668;51.400;6.758;2023-11-19T10:59:17;20.10;72.40
82126;DHT22;71668;51.400;6.758;2023-11-19T11:01:53;20.40;68.60
82126;DHT22;71668;51.400;6.758;2023-11-19T11:04:24;20.80;64.50
82126;DHT22;71668;51.400;6.758;2023-11-19T11:06:54;20.70;59.70
82126;DHT22;71668;51.400;6.758;2023-11-19T11:09:23;20.80;58.80
82126;DHT22;71668;51.400;6.758;2023-11-19T11:11:50;21.20;56.20
82126;DHT22;71668;51.400;6.758;2023-11-19T11:14:20;20.70;56.70
82126;DHT22;71668;51.400;6.758;2023-11-19T11:16:48;19.80;58.70
82126;DHT22;71668;51.400;6.758;2023-11-19T11:19:16;19.10;60.90
82126;DHT22;71668;51.400;6.758;2023-11-19T11:21:47;18.50;63.60
82126;DHT22;71668;51.400;6.758;2023-11-19T11:27:22;18.10;66.70
82126;DHT22;71668;51.400;6.758;2023-11-19T11:30:04;17.80;67.60
82126;DHT22;71668;51.400;6.758;2023-11-19T11:38:40;17.30;70.90
82126;DHT22;71668;51.400;6.758;2023-11-19T11:41:18;17.20;71.50
82126;DHT22;71668;51.400;6.758;2023-11-19T11:43:50;16.90;72.70
82126;DHT22;71668;51.400;6.758;2023-11-19T11:49:01;16.70;74.30
82126;DHT22;71668;51.400;6.758;2023-11-19T11:59:42;16.60;76.60
82126;DHT22;71668;51.400;6.758;2023-11-19T12:02:20;16.40;76.70
82126;DHT22;71668;51.400;6.758;2023-11-19T12:04:50;16.30;77.20
82126;DHT22;71668;51.400;6.758;2023-11-19T12:07:23;16.40;77.10
82126;DHT22;71668;51.400;6.758;2023-11-19T12:10:05;16.40;77.00
82126;DHT22;71668;51.400;6.758;2023-11-19T12:12:40;16.40;76.70
82126;DHT22;71668;51.400;6.758;2023-11-19T12:15:08;16.40;77.10
82126;DHT22;71668;51.400;6.758;2023-11-19T12:17:42;16.50;76.30
82126;DHT22;71668;51.400;6.758;2023-11-19T12:20:19;16.50;76.20
82126;DHT22;71668;51.400;6.758;2023-11-19T12:22:52;16.50;76.70
82126;DHT22;71668;51.400;6.758;2023-11-19T12:25:20;16.50;76.60
82126;DHT22;71668;51.400;6.758;2023-11-19T12:27:48;16.60;76.60
82126;DHT22;71668;51.400;6.758;2023-11-19T12:30:25;16.60;76.80
82126;DHT22;71668;51.400;6.758;2023-11-19T12:32:57;16.60;77.40
82126;DHT22;71668;51.400;6.758;2023-11-19T12:35:24;16.40;77.80
82126;DHT22;71668;51.400;6.758;2023-11-19T12:37:51;16.10;78.40
82126;DHT22;71668;51.400;6.758;2023-11-19T12:40:21;16.00;79.70
82126;DHT22;71668;51.400;6.758;2023-11-19T12:42:50;15.80;80.50
82126;DHT22;71668;51.400;6.758;2023-11-19T12:45:20;15.70;81.50
82126;DHT22;71668;51.400;6.758;2023-11-19T12:47:47;15.50;82.60
82126;DHT22;71668;51.400;6.758;2023-11-19T12:50:18;15.40;85.10
82126;DHT22;71668;51.400;6.758;2023-11-19T12:52:58;15.20;88.20
82126;DHT22;71668;51.400;6.758;2023-11-19T12:55:29;15.10;90.30
82126;DHT22;71668;51.400;6.758;2023-11-19T12:57:57;15.00;90.10
82126;DHT22;71668;51.400;6.758;2023-11-19T13:00:26;14.90;90.10
82126;DHT22;71668;51.400;6.758;2023-11-19T13:02:55;14.70;91.00
82126;DHT22;71668;51.400;6.758;2023-11-19T13:05:31;14.60;92.30
82126;DHT22;71668;51.400;6.758;2023-11-19T13:10:30;14.70;93.80
82126;DHT22;71668;51.400;6.758;2023-11-19T13:13:06;14.70;94.30
82126;DHT22;71668;51.400;6.758;2023-11-19T13:15:35;14.60;94.80
82126;DHT22;71668;51.400;6.758;2023-11-19T13:18:02;14.50;95.60
82126;DHT22;71668;51.400;6.758;2023-11-19T13:20:29;14.40;96.20
82126;DHT22;71668;51.400;6.758;2023-11-19T13:23:06;14.50;96.80
82126;DHT22;71668;51.400;6.758;2023-11-19T13:25:33;14.50;96.90
82126;DHT22;71668;51.400;6.758;2023-11-19T13:28:00;14.40;97.10
82126;DHT22;71668;51.400;6.758;2023-11-19T13:30:29;14.40;97.30
82126;DHT22;71668;51.400;6.758;2023-11-19T13:32:56;14.50;97.30
82126;DHT22;71668;51.400;6.758;2023-11-19T13:35:23;14.60;97.10
82126;DHT22;71668;51.400;6.758;2023-11-19T13:37:50;14.60;96.70
82126;DHT22;71668;51.400;6.758;2023-11-19T13:40:19;14.60;96.30
82126;DHT22;71668;51.400;6.758;2023-11-19T13:42:46;14.60;96.50
82126;DHT22;71668;51.400;6.758;2023-11-19T13:45:14;14.60;96.30
82126;DHT22;71668;51.400;6.758;2023-11-19T13:47:42;14.60;96.00
82126;DHT22;71668;51.400;6.758;2023-11-19T13:50:14;14.60;95.70
82126;DHT22;71668;51.400;6.758;2023-11-19T13:52:42;14.70;95.50
82126;DHT22;71668;51.400;6.758;2023-11-19T13:55:12;14.60;95.10
82126;DHT22;71668;51.400;6.758;2023-11-19T13:57:40;14.60;95.20
82126;DHT22;71668;51.400;6.758;2023-11-19T14:00:10;14.60;95.40
82126;DHT22;71668;51.400;6.758;2023-11-19T14:02:44;14.50;95.30
82126;DHT22;71668;51.400;6.758;2023-11-19T14:05:12;14.50;95.50
82126;DHT22;71668;51.400;6.758;2023-11-19T14:07:40;14.40;95.90
82126;DHT22;71668;51.400;6.758;2023-11-19T14:10:07;14.40;96.10
82126;DHT22;71668;51.400;6.758;2023-11-19T14:12:39;14.40;96.50
82126;DHT22;71668;51.400;6.758;2023-11-19T14:15:07;14.40;97.10
82126;DHT22;71668;51.400;6.758;2023-11-19T14:17:34;14.30;97.50
82126;DHT22;71668;51.400;6.758;2023-11-19T14:20:05;14.30;98.00
82126;DHT22;71668;51.400;6.758;2023-11-19T14:22:40;14.20;98.00
82126;DHT22;71668;51.400;6.758;2023-11-19T14:25:11;14.20;98.30
82126;DHT22;71668;51.400;6.758;2023-11-19T14:27:39;14.20;98.20
82126;DHT22;71668;51.400;6.758;2023-11-19T14:30:11;14.30;98.30
82126;DHT22;71668;51.400;6.758;2023-11-19T14:32:41;14.30;97.70
82126;DHT22;71668;51.400;6.758;2023-11-19T14:35:12;14.20;97.20
82126;DHT22;71668;51.400;6.758;2023-11-19T14:37:39;14.10;97.30
82126;DHT22;71668;51.400;6.758;2023-11-19T14:40:07;14.10;97.30
82126;DHT22;71668;51.400;6.758;2023-11-19T14:42:37;14.00;97.50
82126;DHT22;71668;51.400;6.758;2023-11-19T14:45:06;14.00;97.80
82126;DHT22;71668;51.400;6.758;2023-11-19T14:47:33;14.00;98.00
82126;DHT22;71668;51.400;6.758;2023-11-19T14:50:00;13.90;98.50
82126;DHT22;71668;51.400;6.758;2023-11-19T14:52:27;13.80;98.80
82126;DHT22;71668;51.400;6.758;2023-11-19T14:54:54;13.70;99.60
82126;DHT22;71668;51.400;6.758;2023-11-19T14:57:23;13.60;99.70
82126;DHT22;71668;51.400;6.758;2023-11-19T14:59:50;13.50;99.90
82126;DHT22;71668;51.400;6.758;2023-11-19T15:02:17;13.50;99.90
82126;DHT22;71668;51.400;6.758;2023-11-19T15:04:44;13.50;99.90
82126;DHT22;71668;51.400;6.758;2023-11-19T15:07:12;13.50;99.90
82126;DHT22;71668;51.400;6.758;2023-11-19T15:09:39;13.40;99.90
82126;DHT22;71668;51.400;6.758;2023-11-19T15:12:06;13.50;99.90
82126;DHT22;71668;51.400;6.758;2023-11-19T15:14:33;13.50;99.90
82126;DHT22;71668;51.400;6.758;2023-11-19T15:17:00;13.50;99.90
82126;DHT22;71668;51.400;6.758;2023-11-19T15:19:30;13.50;99.90
82126;DHT22;71668;51.400;6.758;2023-11-19T15:21:57;13.60;99.90
82126;DHT22;71668;51.400;6.758;2023-11-19T15:24:24;13.50;99.90
82126;DHT22;71668;51.400;6.758;2023-11-19T15:26:52;13.50;99.90
82126;DHT22;71668;51.400;6.758;2023-11-19T15:29:39;13.50;99.90
82126;DHT22;71668;51.400;6.758;2023-11-19T15:32:06;13.50;99.90
82126;DHT22;71668;51.400;6.758;2023-11-19T15:34:34;13.40;99.90
82126;DHT22;71668;51.400;6.758;2023-11-19T15:37:02;13.40;99.90
82126;DHT22;71668;51.400;6.758;2023-11-19T15:39:29;13.30;99.90
82126;DHT22;71668;51.400;6.758;2023-11-19T15:41:56;13.30;99.90
82126;DHT22;71668;51.400;6.758;2023-11-19T15:44:25;13.30;99.90
82126;DHT22;71668;51.400;6.758;2023-11-19T15:46:52;13.30;99.90
82126;DHT22;71668;51.400;6.758;2023-11-19T15:49:21;13.30;99.90
82126;DHT22;71668;51.400;6.758;2023-11-19T15:51:48;13.30;99.90
82126;DHT22;71668;51.400;6.758;2023-11-19T15:54:15;13.30;99.90
82126;DHT22;71668;51.400;6.758;2023-11-19T15:56:42;13.30;99.90
82126;DHT22;71668;51.400;6.758;2023-11-19T15:59:09;13.30;99.90
82126;DHT22;71668;51.400;6.758;2023-11-19T16:01:35;13.20;99.90